Create Custom Reports and Graphics: Custom Report

Soquel - CalFire

Current Conditions

3/19/19 10:45 PM (-07:00)
Updated Every 15 Minutes
Temp 49.0 °F   2.5
RH 83 %   36
Dew Pt 44.1 °F   12.3
Wind Spd 0.6 mph
Wind Dir NNE | 26 °
Wind Gust 2.8 mph   1.3
Latest Rain 0.00 In
Daily Rain 0.00 In
Leaf Wet 4.1 mins
Daily Min Temp 48.8 °F   2.1
Daily Max Temp 67.2 °F   5.7

Daily Summary

Last 30 Days

Daily Data | America/Los_Angeles
as of 3/19/19 10:50 PM PDT
Date Daily Max Temp (°F) Daily Min Temp (°F) Daily Rain (In) Seasonal Rainfall (In) Daily Solar Rad (Cal/cm2) Daily ETo (in) Wind Spd (mph) Daily Max Wind (mph) Max Wind Dir (°) Dew Pt (°F) Max RH (%) Min RH (%) Leaf Wet (hrs) Soil Temp (°F) Soil Moist1 (%) Fuel Moisture (%) Max Fuel Moisture (%) Min Fuel Moisture (%) Bat Volt Min Day (V)
3/18/19 72.9 48.5 0.00 51.07 463 0.12 1.7 13.5 SSW | 194 37.6 77 22 0.0 50.6 28.9 8 13 0 12.14
3/17/19 77.4 47.1 0.00 51.07 421 0.11 1.6 8.9 WSW | 248 37.4 75 14 0.0 50.4 29.3 9 15 0 12.10
3/16/19 70.7 43.8 0.00 51.07 458 0.12 1.7 7.9 WSW | 252 38.6 78 29 0.0 50.4 29.8 10 15 0 12.08
3/15/19 68.8 41.4 0.00 51.07 455 0.11 1.7 9.2 W | 280 35.1 76 27 0.0 50.4 30.1 10 14 1 12.05
3/14/19 63.3 39.2 0.00 51.07 440 0.10 2.4 14.6 NNW | 343 26.9 72 20 0.0 50.4 30.7 10 14 3 12.05
3/13/19 60.1 37.5 0.00 51.07 463 0.10 2.8 16.9 NE | 47 26.0 81 22 0.0 50.4 31.3 13 18 6 12.02
3/12/19 59.6 39.5 0.00 51.07 419 0.10 2.2 14.0 SW | 232 38.3 90 39 5.6 50.4 32.0 17 24 10 11.97
3/11/19 61.3 38.6 0.00 51.07 450 0.10 1.9 11.0 NE | 41 37.7 94 31 9.3 50.5 32.8 23 36 11 11.77
3/10/19 53.8 39.0 0.68 51.07 234 0.05 1.3 10.9 WSW | 255 40.2 94 60 16.5 50.6 34.9 39 52 23 11.73
3/9/19 44.7 35.3 1.33 50.39 106 0.02 1.4 11.3 SSW | 204 38.2 94 72 23.6 50.6 34.2 42 51 31 11.81
3/8/19 53.2 35.3 0.01 49.06 337 0.07 1.6 12.2 SSW | 204 36.4 94 45 15.7 50.5 33.2 41 56 25 11.69
3/7/19 49.6 38.0 0.25 49.05 150 0.04 0.9 5.7 SSW | 207 42.3 95 80 23.5 50.4 34.6 51 55 44 11.72
3/6/19 51.3 45.4 2.10 48.80 97 0.02 3.7 20.8 WSW | 241 46.5 95 88 24.0 50.2 35.9 51 54 44 11.75
3/5/19 51.6 44.7 0.58 46.70 102 0.02 1.4 13.5 ENE | 67 45.4 94 81 20.6 49.9 33.8 45 51 38 11.76
3/4/19 51.6 41.4 0.00 46.12 159 0.04 0.7 6.8 WSW | 239 43.0 95 74 17.0 49.6 33.2 46 55 37 11.77
3/3/19 53.5 43.2 0.44 46.12 135 0.03 0.8 10.7 W | 270 47.5 95 91 24.0 49.3 34.8 52 54 47 11.80
3/2/19 55.1 48.0 1.73 45.68 97 0.03 1.7 12.8 SW | 224 49.5 95 90 24.0 49.0 35.1 46 51 30 11.84
3/1/19 55.4 40.1 0.03 43.95 172 0.04 1.0 7.4 W | 272 42.0 94 44 11.9 48.8 32.3 25 32 17 11.93
2/28/19 56.4 42.0 0.14 43.92 268 0.06 0.9 6.6 W | 273 43.8 95 62 16.2 48.6 33.9 39 53 25 11.82
2/27/19 51.8 47.4 1.93 43.78 44 0.01 2.6 15.6 SW | 215 48.1 95 90 24.0 48.5 35.1 48 52 42 11.86
2/26/19 50.6 45.4 0.90 41.85 66 0.02 1.7 15.0 E | 87 44.5 93 77 21.5 48.5 31.5 35 48 17 11.91
2/25/19 49.0 42.0 0.00 40.95 82 0.02 1.8 15.1 SSW | 205 41.5 88 77 0.2 48.5 30.0 17 18 16 11.99
2/24/19 59.2 39.0 0.00 40.95 343 0.08 1.1 8.4 SW | 223 36.8 87 33 0.0 48.6 30.1 14 18 7 12.05
2/23/19 55.7 33.8 0.00 40.95 309 0.07 1.4 6.8 W | 279 31.1 82 33 0.0 48.7 30.1 14 18 8 12.01
2/22/19 55.7 34.7 0.00 40.95 373 0.08 2.1 15.0 ENE | 76 23.1 79 16 0.0 48.9 30.4 13 16 7 12.01
2/21/19 50.8 35.2 0.00 40.95 348 0.07 3.1 20.9 N | 5 26.7 83 28 0.0 49.0 31.0 18 24 11 11.96
2/20/19 50.8 37.5 0.11 40.95 227 0.05 1.9 13.2 W | 262 36.7 91 55 6.1 49.1 31.0 22 32 17 11.99
2/19/19 56.2 33.4 0.00 40.84 357 0.07 1.6 10.4 WNW | 290 26.1 84 20 0.0 49.3 30.9 17 23 9 11.97
2/18/19 51.1 35.1 0.00 40.84 360 0.07 2.6 16.3 N | 1 25.6 92 31 2.1 49.3 31.7 26 38 15 11.91
2/17/19 50.5 35.2 0.15 40.84 239 0.05 1.6 14.6 W | 270 35.1 94 46 16.0 49.3 33.1 46 57 32 11.85